TimeMDT,TemperatureF,Dew PointF,Humidity,Sea Level PressureIn,VisibilityMPH,Wind Direction,Wind SpeedMPH,Gust SpeedMPH,PrecipitationIn,Events,Conditions,WindDirDegrees,DateUTC
12:51 AM,75.0,63.0,66,29.81,10.0,Calm,Calm,-,N/A,,Clear,0,2013-07-30 06:51:00
1:51 AM,73.9,64.0,71,29.82,10.0,East,4.6,-,N/A,,Clear,90,2013-07-30 07:51:00
2:51 AM,72.0,62.1,71,29.84,10.0,Variable,3.5,-,N/A,,Clear,0,2013-07-30 08:51:00
3:51 AM,73.0,62.1,68,29.87,10.0,NNW,3.5,-,N/A,,Clear,330,2013-07-30 09:51:00
4:51 AM,75.0,60.1,60,29.89,10.0,North,11.5,-,N/A,,Clear,350,2013-07-30 10:51:00
5:51 AM,75.0,63.0,66,29.92,10.0,North,15.0,-,N/A,,Clear,360,2013-07-30 11:51:00
6:51 AM,75.0,62.1,64,29.95,10.0,NNW,11.5,-,N/A,,Clear,340,2013-07-30 12:51:00
7:51 AM,78.1,61.0,56,29.96,10.0,North,13.8,-,N/A,,Clear,350,2013-07-30 13:51:00
8:51 AM,80.1,61.0,52,29.98,10.0,North,16.1,21.9,N/A,,Clear,350,2013-07-30 14:51:00
9:51 AM,84.0,62.1,47,29.98,10.0,North,16.1,-,N/A,,Clear,360,2013-07-30 15:51:00
10:51 AM,87.1,62.1,43,29.98,10.0,North,13.8,-,N/A,,Clear,360,2013-07-30 16:51:00
11:51 AM,90.0,60.1,37,29.97,10.0,NNE,6.9,-,N/A,,Clear,20,2013-07-30 17:51:00
12:51 PM,91.9,60.1,34,29.95,10.0,Calm,Calm,-,N/A,,Clear,0,2013-07-30 18:51:00
1:51 PM,93.9,59.0,31,29.93,10.0,North,5.8,-,N/A,,Clear,10,2013-07-30 19:51:00
2:51 PM,97.0,54.0,23,29.91,10.0,Variable,3.5,-,N/A,,Clear,0,2013-07-30 20:51:00
3:51 PM,98.1,51.1,20,29.89,10.0,Variable,3.5,-,N/A,,Clear,0,2013-07-30 21:51:00
4:51 PM,99.0,51.1,20,29.87,10.0,Variable,3.5,-,N/A,,Clear,0,2013-07-30 22:51:00
5:51 PM,99.0,48.9,18,29.86,10.0,ENE,5.8,-,N/A,,Clear,60,2013-07-30 23:51:00
6:51 PM,93.9,55.0,27,29.86,10.0,WSW,15.0,-,N/A,,Clear,250,2013-07-31 00:51:00
7:51 PM,88.0,57.0,35,29.87,10.0,West,13.8,-,N/A,,Clear,260,2013-07-31 01:51:00
8:51 PM,87.1,54.0,32,29.91,10.0,WNW,9.2,-,N/A,,Clear,290,2013-07-31 02:51:00
9:51 PM,82.9,55.9,39,29.92,10.0,South,9.2,-,N/A,,Clear,170,2013-07-31 03:51:00
10:51 PM,80.1,57.0,45,29.93,10.0,South,8.1,-,N/A,,Clear,190,2013-07-31 04:51:00
11:51 PM,75.9,59.0,56,29.93,10.0,SSW,4.6,-,N/A,,Clear,210,2013-07-31 05:51:00